Time;durP1;ratioP1;P1;durP2;ratioP2;P2;SDS_P1;SDS_P2;PMS_P1;PMS_P2;Temp;Humidity;BMP_temperature;BMP_pressure;BME280_temperature;BME280_humidity;BME280_pressure;Samples;Min_cycle;Max_cycle;Signal;HPM_P1;HPM_P2
2021/06/06 00:01:35;;;;;;;198.65;49.98;;;;;;;14.25;90.83;99817.78;1803848;79;21256;-78
2021/06/06 00:04:44;;;;;;;270.45;51.80;;;;;;;14.18;91.23;99817.80;1803213;79;21866;-79
2021/06/06 00:07:46;;;;;;;214.38;45.45;;;;;;;14.12;91.64;99814.53;1801636;79;21383;-78
2021/06/06 00:10:52;;;;;;;200.57;52.78;;;;;;;14.10;92.13;99814.41;1802676;79;21216;-78
2021/06/06 00:13:59;;;;;;;165.82;50.83;;;;;;;14.09;92.53;99808.06;1802716;79;21280;-78
2021/06/06 00:17:08;;;;;;;271.25;55.73;;;;;;;14.10;92.93;99815.78;1802956;79;21287;-78
2021/06/06 00:20:15;;;;;;;270.65;53.55;;;;;;;14.12;93.21;99811.78;1803731;79;21146;-79
2021/06/06 00:23:21;;;;;;;252.65;53.92;;;;;;;14.14;93.08;99806.06;1802874;79;21275;-78
2021/06/06 00:26:26;;;;;;;222.35;65.50;;;;;;;14.15;92.97;99802.24;1801292;79;21223;-79
2021/06/06 00:29:32;;;;;;;290.02;59.83;;;;;;;14.16;92.76;99795.17;1801153;79;21323;-78
2021/06/06 00:32:38;;;;;;;320.27;63.70;;;;;;;14.17;92.39;99794.11;1802685;79;21291;-78
2021/06/06 00:35:44;;;;;;;267.95;66.12;;;;;;;14.18;92.19;99791.67;1802684;79;21296;-78
2021/06/06 00:38:51;;;;;;;240.10;55.67;;;;;;;14.21;92.05;99798.64;1801064;79;21319;-78
2021/06/06 00:41:59;;;;;;;291.90;66.22;;;;;;;14.23;91.66;99789.66;1802625;79;21338;-78
2021/06/06 00:45:06;;;;;;;243.95;64.87;;;;;;;14.21;91.50;99778.00;1801239;79;21260;-78
2021/06/06 00:48:13;;;;;;;222.37;63.30;;;;;;;14.20;91.48;99780.45;1801337;79;21288;-78
2021/06/06 00:51:33;;;;;;;255.40;62.55;;;;;;;14.18;91.26;99774.33;1801529;79;21347;-78
2021/06/06 00:54:44;;;;;;;189.28;59.10;;;;;;;14.15;91.38;99771.99;1801610;79;21814;-78
2021/06/06 00:57:49;;;;;;;230.25;68.85;;;;;;;14.13;91.45;99778.25;1802865;79;21295;-78
2021/06/06 01:00:59;;;;;;;258.32;63.33;;;;;;;14.11;91.39;99778.97;1801164;79;21227;-78
2021/06/06 01:04:07;;;;;;;262.02;62.67;;;;;;;14.09;91.09;99775.59;1802633;79;21351;-78
2021/06/06 01:07:14;;;;;;;337.50;76.12;;;;;;;14.10;90.97;99770.41;1801068;79;21208;-78
2021/06/06 01:10:21;;;;;;;299.70;77.30;;;;;;;14.08;91.02;99769.79;1802273;79;21304;-77
2021/06/06 01:13:37;;;;;;;259.80;53.38;;;;;;;14.05;90.92;99769.67;1802686;79;21287;-79
2021/06/06 01:16:48;;;;;;;250.57;52.08;;;;;;;13.98;90.86;99763.34;1803741;79;21689;-78
2021/06/06 01:20:41;;;;;;;292.85;56.85;;;;;;;13.94;91.21;99762.07;1803771;79;21256;-78
2021/06/06 01:24:17;;;;;;;262.15;54.55;;;;;;;13.89;91.63;99759.95;1802980;79;21197;-78
2021/06/06 01:27:35;;;;;;;322.07;56.18;;;;;;;13.83;92.14;99763.52;1803738;79;21260;-79
2021/06/06 01:30:45;;;;;;;274.52;62.53;;;;;;;13.80;92.42;99762.59;1802543;79;21228;-78
2021/06/06 01:33:57;;;;;;;253.50;52.13;;;;;;;13.79;92.69;99759.53;1803340;79;21862;-78
2021/06/06 01:37:10;;;;;;;236.10;54.93;;;;;;;13.80;93.06;99752.97;1802793;79;21731;-78
2021/06/06 01:40:21;;;;;;;207.40;54.27;;;;;;;13.83;93.22;99761.31;1801801;79;21216;-78
2021/06/06 01:43:33;;;;;;;270.73;64.23;;;;;;;13.81;92.94;99769.77;1802700;79;21371;-78
2021/06/06 01:46:50;;;;;;;249.18;64.05;;;;;;;13.81;92.94;99769.77;1786787;79;22327;-78
2021/06/06 01:50:02;;;;;;;302.50;57.23;;;;;;;13.83;92.78;99759.40;1802823;79;21216;-78
2021/06/06 01:53:07;;;;;;;;;;;;;;;13.87;92.55;99764.80;1805345;79;21311;-78
2021/06/06 01:56:13;;;;;;;304.80;65.92;;;;;;;13.88;92.13;99765.14;1801279;79;20669;-78
2021/06/06 01:59:32;;;;;;;291.52;58.83;;;;;;;13.87;92.11;99769.45;1802793;79;21181;-78
2021/06/06 02:02:40;;;;;;;184.87;57.65;;;;;;;13.97;92.42;99763.00;1803440;79;21303;-79
2021/06/06 02:05:47;;;;;;;349.30;66.07;;;;;;;14.06;92.36;99763.95;1802734;79;21577;-79
2021/06/06 02:08:54;;;;;;;261.10;83.05;;;;;;;14.13;91.95;99765.34;1803744;79;21296;-78
2021/06/06 02:12:05;;;;;;;346.87;89.62;;;;;;;14.19;91.37;99763.63;1803571;79;21334;-78
2021/06/06 02:15:17;;;;;;;260.77;66.80;;;;;;;14.26;90.76;99761.73;1803862;79;21138;-78
2021/06/06 02:18:26;;;;;;;296.05;61.55;;;;;;;14.31;90.18;99755.91;1801983;79;21196;-79
2021/06/06 02:21:33;;;;;;;264.68;73.30;;;;;;;14.33;89.70;99767.52;1802016;79;21291;-78
2021/06/06 02:24:42;;;;;;;361.37;94.75;;;;;;;14.34;89.11;99760.11;1801169;79;21898;-79
2021/06/06 02:28:19;;;;;;;400.60;102.22;;;;;;;14.35;88.89;99767.83;1803992;79;21291;-78
2021/06/06 02:31:56;;;;;;;355.57;78.42;;;;;;;14.33;88.77;99761.19;1803521;79;21212;-78
2021/06/06 02:35:14;;;;;;;254.13;65.95;;;;;;;14.34;88.72;99773.87;1803889;79;21177;-78
2021/06/06 02:38:30;;;;;;;311.82;72.15;;;;;;;14.39;88.83;99769.94;1803161;79;21375;-79
2021/06/06 02:41:40;;;;;;;260.00;61.53;;;;;;;14.46;88.83;99763.08;1802153;79;22048;-78
2021/06/06 02:44:53;;;;;;;266.42;67.53;;;;;;;14.49;88.89;99770.41;1803868;79;21342;-78
2021/06/06 02:48:04;;;;;;;284.43;63.00;;;;;;;14.55;89.17;99765.41;1802222;79;21147;-77
2021/06/06 02:51:15;;;;;;;221.68;65.72;;;;;;;14.63;89.30;99762.09;1803912;79;21177;-77
2021/06/06 02:54:27;;;;;;;273.43;64.20;;;;;;;14.73;89.26;99761.14;1803824;78;21291;-78
2021/06/06 02:57:35;;;;;;;273.43;66.77;;;;;;;14.82;89.23;99766.72;1793027;79;21184;-78
2021/06/06 03:00:50;;;;;;;265.45;65.92;;;;;;;14.91;89.10;99761.79;1779381;80;21327;-78
2021/06/06 03:03:55;;;;;;;265.48;74.87;;;;;;;15.01;88.91;99768.55;1779497;80;21331;-78
2021/06/06 03:07:24;;;;;;;258.30;76.90;;;;;;;15.11;88.46;99772.75;1780471;80;21252;-78
2021/06/06 03:10:32;;;;;;;247.45;69.20;;;;;;;15.15;87.92;99769.84;1780283;80;21343;-78
2021/06/06 03:13:59;;;;;;;251.27;64.58;;;;;;;15.20;87.71;99765.92;1779712;80;21777;-79
2021/06/06 03:17:12;;;;;;;284.00;75.25;;;;;;;15.24;87.45;99771.28;1777940;80;21188;-78
2021/06/06 03:20:22;;;;;;;336.18;90.70;;;;;;;15.31;87.27;99767.97;1780146;80;21296;-78
2021/06/06 03:23:32;;;;;;;286.23;77.30;;;;;;;15.37;86.87;99761.57;1780446;80;21677;-78
2021/06/06 03:26:39;;;;;;;284.27;81.12;;;;;;;15.44;86.22;99763.77;1779418;80;21296;-78
2021/06/06 03:30:06;;;;;;;321.77;69.70;;;;;;;15.54;85.85;99759.98;1779300;80;21303;-79
2021/06/06 03:33:21;;;;;;;272.15;74.00;;;;;;;15.67;85.98;99757.72;1778240;80;21330;-78
2021/06/06 03:36:37;;;;;;;269.10;77.90;;;;;;;15.83;85.90;99757.16;1779996;80;21197;-78
2021/06/06 03:40:03;;;;;;;275.35;75.20;;;;;;;16.07;85.69;99751.88;1779029;80;21319;-78
2021/06/06 03:43:12;;;;;;;276.73;73.20;;;;;;;16.36;85.18;99751.16;1778080;80;21323;-78
2021/06/06 03:46:19;;;;;;;234.70;79.20;;;;;;;16.58;84.43;99754.34;1778077;80;21224;-78
2021/06/06 03:49:24;;;;;;;254.28;86.12;;;;;;;16.69;82.61;99749.97;1779589;80;21291;-79
2021/06/06 03:52:33;;;;;;;401.45;89.17;;;;;;;16.59;81.68;99744.98;1778926;80;21751;-79
2021/06/06 03:55:39;;;;;;;418.17;107.37;;;;;;;16.50;81.91;99751.88;1778862;80;21867;-78
2021/06/06 03:58:46;;;;;;;420.48;93.72;;;;;;;16.55;81.67;99753.95;1780222;79;21367;-78
2021/06/06 04:01:52;;;;;;;365.87;92.27;;;;;;;16.58;81.11;99756.27;1779573;80;22569;-79
2021/06/06 04:04:58;;;;;;;458.87;108.52;;;;;;;16.60;81.25;99760.47;1779433;80;21292;-79
2021/06/06 04:08:04;;;;;;;309.85;95.40;;;;;;;16.64;81.01;99752.58;1761030;80;21834;-78
2021/06/06 04:11:12;;;;;;;378.62;94.92;;;;;;;16.71;81.00;99757.50;1778714;80;21217;-78
2021/06/06 04:14:24;;;;;;;327.02;93.03;;;;;;;16.88;80.92;99759.66;1778074;80;21466;-78
2021/06/06 04:17:30;;;;;;;418.55;115.00;;;;;;;16.97;80.12;99754.98;1779470;80;21276;-78
2021/06/06 04:20:38;;;;;;;634.33;125.15;;;;;;;17.07;79.42;99763.55;1777953;80;21181;-78
2021/06/06 04:23:44;;;;;;;744.17;187.85;;;;;;;17.26;78.82;99764.91;1777926;80;21185;-79
2021/06/06 04:26:51;;;;;;;567.55;182.47;;;;;;;17.41;77.88;99768.13;1778306;80;21343;-78
2021/06/06 04:29:50;;;;;;;567.22;168.13;;;;;;;17.51;76.41;99764.26;1779443;80;21292;-77
2021/06/06 04:32:42;;;;;;;683.00;214.85;;;;;;;17.59;76.17;99767.21;1779118;80;21331;-79
2021/06/06 04:35:48;;;;;;;711.40;212.45;;;;;;;17.73;75.29;99760.95;1778027;80;21208;-79
2021/06/06 04:38:53;;;;;;;572.48;251.35;;;;;;;17.92;74.55;99766.73;1779861;80;21818;-78
2021/06/06 04:42:01;;;;;;;678.25;249.15;;;;;;;18.03;73.26;99769.24;1763978;80;21382;-78
2021/06/06 04:45:07;;;;;;;1069.93;535.15;;;;;;;18.11;73.05;99762.82;1778064;80;21324;-79
2021/06/06 04:48:32;;;;;;;934.98;424.40;;;;;;;18.16;71.76;99765.38;1779563;80;21197;-78
2021/06/06 04:51:37;;;;;;;958.75;450.38;;;;;;;18.20;71.15;99758.30;1779492;80;21335;-78
2021/06/06 04:54:44;;;;;;;1260.20;665.08;;;;;;;18.22;70.76;99760.30;1777998;80;21744;-78
2021/06/06 04:57:50;;;;;;;1410.85;774.23;;;;;;;18.25;70.05;99759.25;1779115;80;21821;-78
2021/06/06 05:00:58;;;;;;;1406.53;759.77;;;;;;;18.22;69.26;99755.60;1799841;79;21272;-79
2021/06/06 05:04:06;;;;;;;1455.40;778.75;;;;;;;18.19;69.56;99764.91;1801926;79;21850;-79
2021/06/06 05:07:12;;;;;;;1999.23;942.47;;;;;;;18.19;69.86;99768.52;1802900;79;21965;-79
2021/06/06 05:10:21;;;;;;;1262.90;668.95;;;;;;;18.19;69.22;99765.75;1802897;79;21887;-79
2021/06/06 05:13:27;;;;;;;1634.40;771.65;;;;;;;18.14;69.61;99769.24;1801400;79;21196;-79
2021/06/06 05:16:33;;;;;;;1883.75;961.12;;;;;;;18.17;69.33;99770.70;1801345;79;21288;-78
2021/06/06 05:19:40;;;;;;;1349.53;734.03;;;;;;;18.23;68.38;99760.59;1803005;79;21275;-79
2021/06/06 05:22:46;;;;;;;1187.10;590.05;;;;;;;18.26;68.59;99771.20;1802920;79;21295;-79
2021/06/06 05:25:53;;;;;;;1288.35;627.47;;;;;;;18.40;69.04;99774.03;1801405;79;21859;-79
2021/06/06 05:29:02;;;;;;;1258.15;653.02;;;;;;;18.73;68.74;99771.22;1801455;79;21308;-78
2021/06/06 05:32:08;;;;;;;1687.55;854.75;;;;;;;18.97;68.08;99771.47;1802673;79;21347;-78
2021/06/06 05:35:15;;;;;;;1903.55;880.90;;;;;;;19.14;66.74;99772.92;1801524;79;21323;-78
2021/06/06 05:38:20;;;;;;;1999.90;999.90;;;;;;;19.19;66.28;99774.95;1802922;79;21288;-79
2021/06/06 05:41:26;;;;;;;1999.90;999.90;;;;;;;19.29;64.29;99776.03;1802949;79;21890;-79
2021/06/06 05:44:32;;;;;;;1999.90;999.90;;;;;;;19.45;63.73;99772.16;1801976;79;22505;-78
2021/06/06 05:47:37;;;;;;;1999.90;999.90;;;;;;;19.60;63.27;99768.32;1802973;79;21288;-78
2021/06/06 05:50:47;;;;;;;1999.90;999.90;;;;;;;19.74;62.27;99768.86;1802953;79;21760;-79
2021/06/06 05:53:54;;;;;;;1999.90;999.90;;;;;;;19.82;61.52;99766.52;1791620;79;21338;-79
2021/06/06 05:56:59;;;;;;;1999.90;999.90;;;;;;;19.93;61.79;99769.47;1802818;79;21248;-79
2021/06/06 06:00:05;;;;;;;1999.90;999.90;;;;;;;19.99;60.87;99772.08;1802325;79;21296;-79
2021/06/06 06:03:11;;;;;;;1999.90;999.90;;;;;;;19.99;60.14;99769.30;1811551;79;21220;-79
2021/06/06 06:06:17;;;;;;;1999.90;999.90;;;;;;;19.85;60.48;99773.48;1811423;79;21892;-78
2021/06/06 06:09:22;;;;;;;1999.90;999.90;;;;;;;19.91;60.28;99766.96;1811426;79;21303;-79
2021/06/06 06:12:28;;;;;;;1999.90;999.90;;;;;;;20.06;60.30;99761.66;1810033;79;21318;-79
2021/06/06 06:15:36;;;;;;;1999.90;999.90;;;;;;;20.15;59.89;99761.54;1809936;79;21300;-79
2021/06/06 06:18:41;;;;;;;1999.90;999.90;;;;;;;20.18;59.54;99764.34;1809743;79;21303;-79
2021/06/06 06:21:47;;;;;;;1999.90;965.05;;;;;;;20.23;57.78;99763.59;1811683;79;21622;-78
2021/06/06 06:24:54;;;;;;;1999.90;999.90;;;;;;;20.38;56.42;99763.30;1810831;79;21311;-79
2021/06/06 06:28:00;;;;;;;1999.90;999.90;;;;;;;20.48;56.90;99764.59;1811052;78;21318;-78
2021/06/06 06:31:11;;;;;;;1999.90;963.38;;;;;;;20.53;56.25;99760.50;1808666;79;21184;-79
2021/06/06 06:34:19;;;;;;;1999.90;743.08;;;;;;;20.61;56.02;99763.69;1811246;79;22780;-78
2021/06/06 06:37:25;;;;;;;1999.90;783.55;;;;;;;20.66;55.52;99766.53;1811425;79;21222;-79
2021/06/06 06:40:31;;;;;;;1999.90;746.20;;;;;;;20.73;54.29;99758.00;1811490;79;21771;-79
2021/06/06 06:43:36;;;;;;;1999.90;881.20;;;;;;;20.79;54.36;99761.69;1810597;79;21326;-78
2021/06/06 06:46:41;;;;;;;1999.90;886.30;;;;;;;20.80;54.32;99765.63;1811395;79;21842;-79
2021/06/06 06:49:47;;;;;;;1999.90;878.42;;;;;;;20.90;54.78;99769.09;1809915;79;21850;-79
2021/06/06 06:52:52;;;;;;;1999.90;999.90;;;;;;;20.96;54.34;99769.99;1811342;79;21299;-78
2021/06/06 06:55:57;;;;;;;1999.90;999.90;;;;;;;20.97;54.35;99764.16;1810307;79;21262;-79
2021/06/06 06:59:02;;;;;;;1999.90;898.62;;;;;;;21.08;54.24;99767.94;1810500;79;21323;-79
2021/06/06 07:02:08;;;;;;;1999.90;825.50;;;;;;;21.11;53.31;99769.62;1809321;79;21366;-79
2021/06/06 07:05:13;;;;;;;1999.90;926.62;;;;;;;21.21;51.75;99764.74;1811003;79;21303;-79
2021/06/06 07:08:21;;;;;;;1999.90;839.42;;;;;;;21.44;51.52;99770.62;1811466;79;21170;-79
2021/06/06 07:11:27;;;;;;;1999.90;961.15;;;;;;;21.62;51.48;99768.88;1811595;79;21326;-78
2021/06/06 07:14:34;;;;;;;1999.90;994.70;;;;;;;21.75;50.73;99767.63;1810478;79;21339;-79
2021/06/06 07:17:39;;;;;;;1999.90;830.55;;;;;;;21.86;50.54;99769.95;1811504;79;21279;-79
2021/06/06 07:20:46;;;;;;;1999.90;950.92;;;;;;;21.99;51.56;99767.29;1811483;79;21330;-79
2021/06/06 07:23:51;;;;;;;1999.90;861.20;;;;;;;22.06;51.28;99774.30;1811422;79;21338;-78
2021/06/06 07:26:56;;;;;;;1999.90;887.63;;;;;;;21.97;50.63;99773.66;1809984;79;21295;-78
2021/06/06 07:30:02;;;;;;;1999.90;999.90;;;;;;;21.98;50.73;99776.20;1810016;78;21192;-78
2021/06/06 07:33:07;;;;;;;1999.90;999.90;;;;;;;22.02;49.17;99770.39;1811477;79;21874;-79
2021/06/06 07:36:13;;;;;;;1999.90;999.90;;;;;;;22.12;48.95;99769.12;1810680;79;21374;-79
2021/06/06 07:39:19;;;;;;;1999.90;999.90;;;;;;;22.17;49.53;99771.95;1811439;79;21850;-79
2021/06/06 07:42:24;;;;;;;1999.90;943.30;;;;;;;22.19;49.43;99771.11;1811334;79;21284;-79
2021/06/06 07:45:29;;;;;;;1999.90;955.08;;;;;;;22.20;49.90;99774.73;1809979;79;21731;-79
2021/06/06 07:48:34;;;;;;;1999.90;920.88;;;;;;;22.24;49.49;99772.27;1811349;79;21164;-79
2021/06/06 07:51:40;;;;;;;1999.90;999.90;;;;;;;22.34;50.32;99773.73;1809963;79;21283;-79
2021/06/06 07:54:45;;;;;;;1999.90;999.90;;;;;;;22.40;49.13;99772.13;1811470;79;21807;-79
2021/06/06 07:57:50;;;;;;;1999.90;999.90;;;;;;;22.41;47.84;99765.44;1811443;79;21169;-79
2021/06/06 08:00:56;;;;;;;1999.90;999.90;;;;;;;22.40;48.53;99767.95;1809852;79;21227;-79
2021/06/06 08:04:01;;;;;;;1999.90;999.90;;;;;;;22.41;48.69;99767.39;1808514;79;21869;-79
2021/06/06 08:07:07;;;;;;;1999.90;999.90;;;;;;;22.49;49.47;99771.08;1810216;79;21283;-79
2021/06/06 08:10:16;;;;;;;1999.90;999.90;;;;;;;22.54;48.09;99767.50;1811441;79;21819;-79
2021/06/06 08:13:22;;;;;;;1999.90;999.90;;;;;;;22.52;46.73;99766.34;1810127;79;21762;-79
2021/06/06 08:16:27;;;;;;;1999.90;999.90;;;;;;;22.58;46.06;99768.05;1810767;79;21374;-79
2021/06/06 08:19:33;;;;;;;1999.90;999.90;;;;;;;22.66;45.97;99771.73;1811457;79;21330;-79
2021/06/06 08:22:38;;;;;;;1999.90;999.90;;;;;;;22.71;46.19;99765.36;1811397;79;21299;-79
2021/06/06 08:25:44;;;;;;;1999.90;999.90;;;;;;;22.70;45.77;99763.13;1811374;79;21814;-79
2021/06/06 08:28:50;;;;;;;1999.90;999.90;;;;;;;22.76;46.12;99768.17;1811395;79;21878;-80
2021/06/06 08:31:55;;;;;;;1999.90;999.90;;;;;;;22.69;46.09;99771.21;1811222;79;21188;-80
2021/06/06 08:35:00;;;;;;;1999.90;999.90;;;;;;;22.64;46.12;99765.61;1811504;79;21361;-79
2021/06/06 08:38:05;;;;;;;1999.90;999.90;;;;;;;22.67;46.79;99761.42;1811434;79;21774;-79
2021/06/06 08:41:23;;;;;;;1999.90;999.90;;;;;;;22.71;46.68;99766.19;1811298;79;22525;-79
2021/06/06 08:44:49;;;;;;;1999.90;999.90;;;;;;;22.81;48.01;99760.39;1810336;78;21319;-80
2021/06/06 08:47:55;;;;;;;1999.90;999.90;;;;;;;22.92;47.95;99758.00;1810012;79;21315;-79
2021/06/06 08:51:24;;;;;;;1999.90;999.90;;;;;;;23.01;47.73;99756.38;1809783;79;21303;-80
2021/06/06 08:54:33;;;;;;;1999.90;999.90;;;;;;;22.99;47.83;99761.36;1767827;79;21350;-80
2021/06/06 08:57:54;;;;;;;1999.90;999.90;;;;;;;23.05;47.65;99760.83;1810288;79;21276;-79
2021/06/06 09:01:11;;;;;;;1999.90;999.90;;;;;;;23.02;47.42;99762.23;1810440;78;21338;-79
2021/06/06 09:04:29;;;;;;;1999.90;994.35;;;;;;;22.76;47.04;99760.37;1805912;79;21937;-79
2021/06/06 09:07:45;;;;;;;1999.90;999.90;;;;;;;22.46;48.15;99763.25;1801846;79;21847;-79
2021/06/06 09:10:54;;;;;;;1999.90;999.90;;;;;;;22.40;47.29;99758.20;1802906;79;21839;-79
2021/06/06 09:13:59;;;;;;;1999.90;999.90;;;;;;;22.45;46.64;99762.41;1802932;79;21280;-79
2021/06/06 09:17:13;;;;;;;1999.90;999.90;;;;;;;22.54;47.85;99758.58;1801420;79;21252;-79
2021/06/06 09:20:47;;;;;;;1999.90;999.90;;;;;;;22.67;46.67;99753.90;1802823;79;21822;-79
2021/06/06 09:23:53;;;;;;;1999.90;999.90;;;;;;;22.85;46.53;99754.56;1801285;79;21412;-79
2021/06/06 09:26:59;;;;;;;1999.90;999.90;;;;;;;23.04;47.45;99753.02;1802560;79;21280;-80
2021/06/06 09:30:24;;;;;;;1999.90;999.90;;;;;;;23.17;48.29;99755.31;1802900;79;21291;-79
2021/06/06 09:33:37;;;;;;;1999.90;999.90;;;;;;;23.24;45.02;99761.19;1803051;79;21834;-79
2021/06/06 09:36:47;;;;;;;1999.90;999.90;;;;;;;23.11;45.63;99755.02;1802972;79;21216;-78
2021/06/06 09:39:53;;;;;;;1999.90;999.90;;;;;;;23.00;47.41;99750.48;1802977;79;21384;-79
2021/06/06 09:42:58;;;;;;;1999.90;999.90;;;;;;;23.05;47.29;99756.08;1802861;79;21291;-79
2021/06/06 09:46:24;;;;;;;1999.90;999.90;;;;;;;22.95;46.27;99747.12;1802383;79;21366;-79
2021/06/06 09:49:50;;;;;;;1999.90;999.90;;;;;;;22.83;46.73;99743.69;1802904;79;21331;-79
2021/06/06 09:52:55;;;;;;;1999.90;999.90;;;;;;;22.75;47.54;99753.12;1802830;79;21576;-79
2021/06/06 09:56:16;;;;;;;1999.90;999.90;;;;;;;22.73;47.79;99740.86;1802984;79;21284;-79
2021/06/06 09:59:31;;;;;;;1999.90;999.90;;;;;;;22.89;46.98;99741.80;1797134;79;21197;-79
2021/06/06 10:02:38;;;;;;;1999.90;999.90;;;;;;;23.08;47.35;99736.02;1801544;79;21260;-79
2021/06/06 10:05:46;;;;;;;1999.90;999.90;;;;;;;23.18;45.41;99743.03;1801214;79;21205;-79
2021/06/06 10:08:52;;;;;;;1999.90;999.90;;;;;;;23.24;44.94;99730.50;1801818;79;21834;-79
2021/06/06 10:12:14;;;;;;;1999.90;999.90;;;;;;;23.35;45.85;99728.05;1784001;79;21782;-79
2021/06/06 10:15:27;;;;;;;1999.90;999.90;;;;;;;23.41;45.93;99728.33;1802945;79;21815;-79
2021/06/06 10:18:41;;;;;;;1999.90;999.90;;;;;;;23.32;43.87;99725.79;1783733;79;21379;-79
2021/06/06 10:21:46;;;;;;;1999.90;999.90;;;;;;;23.28;45.04;99726.05;1802977;79;21493;-79
2021/06/06 10:25:06;;;;;;;1999.90;999.90;;;;;;;23.35;45.06;99726.65;1802922;79;21335;-79
2021/06/06 10:28:10;;;;;;;1999.90;999.90;;;;;;;23.49;44.11;99720.82;1802492;79;21562;-79
2021/06/06 10:31:33;;;;;;;1999.90;999.90;;;;;;;23.54;44.48;99715.81;1803021;79;21183;-79
2021/06/06 10:35:00;;;;;;;1999.90;999.90;;;;;;;23.52;44.54;99716.06;1802917;79;21291;-79
2021/06/06 10:38:06;;;;;;;1999.90;999.90;;;;;;;23.32;44.06;99712.67;1715291;83;21961;-79
2021/06/06 10:41:40;;;;;;;1999.90;999.90;;;;;;;23.03;44.77;99714.25;1715853;83;21343;-79
2021/06/06 10:45:10;;;;;;;1999.90;999.90;;;;;;;22.79;45.58;99711.88;1801569;79;21866;-79
2021/06/06 10:48:29;;;;;;;1999.90;999.90;;;;;;;22.68;46.56;99708.22;1775751;81;21177;-79
2021/06/06 10:51:47;;;;;;;1999.90;999.90;;;;;;;22.78;45.54;99701.02;1776198;81;21188;-78
2021/06/06 10:54:57;;;;;;;1999.90;999.90;;;;;;;22.92;46.58;99689.68;1776204;81;21288;-79
2021/06/06 10:58:02;;;;;;;1999.90;999.90;;;;;;;23.01;45.22;99692.23;1776546;81;22587;-79
2021/06/06 11:01:31;;;;;;;1999.90;999.90;;;;;;;23.20;45.77;99692.01;1775625;81;21885;-79
2021/06/06 11:04:39;;;;;;;1999.90;999.90;;;;;;;23.40;43.32;99691.22;1771726;80;22165;-79
2021/06/06 11:07:51;;;;;;;1999.90;999.90;;;;;;;23.45;43.93;99684.25;1776337;81;21153;-79
2021/06/06 11:10:59;;;;;;;1999.90;999.90;;;;;;;23.52;44.40;99688.72;1744960;82;21830;-79
2021/06/06 11:14:24;;;;;;;1999.90;999.90;;;;;;;23.55;45.27;99685.38;1756884;79;21605;-79
2021/06/06 11:17:41;;;;;;;1999.90;999.90;;;;;;;23.47;44.92;99691.77;1743944;82;21331;-79
2021/06/06 11:21:08;;;;;;;1999.90;999.90;;;;;;;23.32;44.25;99689.52;1745013;82;21291;-79
2021/06/06 11:24:50;;;;;;;1999.90;999.90;;;;;;;23.24;45.32;99688.65;1745155;82;21188;-79
2021/06/06 11:28:10;;;;;;;1999.90;999.90;;;;;;;23.28;44.87;99703.73;1745289;82;21298;-79
2021/06/06 11:31:38;;;;;;;1999.90;999.90;;;;;;;23.36;44.96;99697.63;1745355;82;21232;-79
2021/06/06 11:34:47;;;;;;;1999.90;999.90;;;;;;;23.47;44.29;99700.70;1745129;82;21311;-79
2021/06/06 11:37:55;;;;;;;1999.90;999.90;;;;;;;23.55;43.95;99697.38;1746086;82;21327;-79
2021/06/06 11:41:38;;;;;;;1999.90;999.90;;;;;;;23.43;44.09;99700.44;1745875;82;21311;-79
2021/06/06 11:44:54;;;;;;;1999.90;999.90;;;;;;;23.24;44.78;99700.64;1743688;82;21382;-79
2021/06/06 11:48:09;;;;;;;1999.90;999.90;;;;;;;23.01;45.45;99692.75;1740755;81;21208;-78
2021/06/06 11:51:16;;;;;;;1999.90;999.90;;;;;;;22.88;46.42;99692.70;1771342;81;21294;-79
2021/06/06 11:54:48;;;;;;;1999.90;999.90;;;;;;;22.79;47.68;99696.55;1703578;82;21340;-79
2021/06/06 11:58:24;;;;;;;1999.90;999.90;;;;;;;22.66;45.26;99694.25;1757554;81;21307;-79
2021/06/06 12:01:31;;;;;;;1999.90;999.90;;;;;;;22.55;47.35;99689.19;1770330;81;21263;-79
2021/06/06 12:04:39;;;;;;;1999.90;999.90;;;;;;;22.47;46.29;99684.11;1770542;81;21836;-78
2021/06/06 12:07:45;;;;;;;1999.90;999.90;;;;;;;22.39;47.21;99680.44;1769085;81;21299;-79
2021/06/06 12:11:03;;;;;;;1999.90;999.90;;;;;;;22.36;46.47;99682.39;1768936;81;21826;-79
2021/06/06 12:14:31;;;;;;;1999.90;999.90;;;;;;;22.34;46.02;99672.88;1770457;81;21287;-79
2021/06/06 12:17:37;;;;;;;1999.90;999.90;;;;;;;22.43;47.32;99677.40;1769854;81;21854;-78
2021/06/06 12:20:48;;;;;;;1999.90;999.90;;;;;;;22.57;48.53;99677.20;1769175;81;21914;-79
2021/06/06 12:24:18;;;;;;;1999.90;999.90;;;;;;;22.58;47.98;99670.51;1770440;81;21437;-79
2021/06/06 12:27:29;;;;;;;1999.90;999.90;;;;;;;22.59;47.47;99672.21;1770697;81;21220;-79
2021/06/06 12:30:53;;;;;;;1999.90;999.90;;;;;;;22.73;47.25;99677.30;1769355;81;21330;-79
2021/06/06 12:33:59;;;;;;;1999.90;999.90;;;;;;;22.70;48.44;99682.29;1769001;81;21346;-79
2021/06/06 12:37:11;;;;;;;1999.90;999.00;;;;;;;22.59;46.70;99670.81;1770511;81;21260;-79
2021/06/06 12:40:19;;;;;;;1999.90;992.50;;;;;;;22.48;47.60;99673.80;1769712;81;21394;-79
2021/06/06 12:43:26;;;;;;;1999.90;999.90;;;;;;;22.38;47.58;99669.02;1749309;81;21342;-79
2021/06/06 12:46:31;;;;;;;1999.90;999.90;;;;;;;22.40;47.87;99674.61;1768998;81;21284;-79
2021/06/06 12:49:49;;;;;;;1999.90;986.97;;;;;;;22.45;48.68;99671.02;1765169;80;21866;-79
2021/06/06 12:53:01;;;;;;;1999.90;999.90;;;;;;;22.40;47.28;99673.78;1766117;81;21197;-79
2021/06/06 12:56:23;;;;;;;1999.90;999.90;;;;;;;22.32;46.40;99671.49;1766400;81;21332;-79
2021/06/06 12:59:33;;;;;;;1999.90;986.55;;;;;;;22.24;46.44;99671.98;1766077;81;21331;-79
2021/06/06 13:02:39;;;;;;;1999.90;999.90;;;;;;;22.16;46.61;99668.61;1765789;81;21385;-79
2021/06/06 13:05:49;;;;;;;1999.90;946.33;;;;;;;22.11;47.82;99667.19;1764238;81;21178;-79
2021/06/06 13:08:53;;;;;;;1999.90;963.70;;;;;;;22.08;47.33;99662.11;1766070;81;21339;-79
2021/06/06 13:12:13;;;;;;;1999.90;947.10;;;;;;;22.04;47.73;99662.36;1766134;81;21296;-79
2021/06/06 13:15:28;;;;;;;1999.90;982.55;;;;;;;21.97;47.01;99660.34;1694518;84;21361;-79
2021/06/06 13:18:36;;;;;;;1999.90;999.90;;;;;;;21.85;47.64;99663.88;1693873;84;21348;-79
2021/06/06 13:21:48;;;;;;;1999.90;999.90;;;;;;;21.72;49.29;99658.76;1719883;83;21307;-79
2021/06/06 13:24:54;;;;;;;1999.90;994.50;;;;;;;21.59;49.07;99655.30;1720728;83;21287;-79
2021/06/06 13:27:58;;;;;;;1999.90;999.90;;;;;;;21.47;50.32;99651.86;1719397;83;21299;-79
2021/06/06 13:31:11;;;;;;;1999.90;858.35;;;;;;;21.33;50.33;99652.84;1719429;83;21283;-78
2021/06/06 13:34:17;;;;;;;1999.90;999.90;;;;;;;21.27;50.14;99654.42;1719931;83;21311;-79
2021/06/06 13:37:22;;;;;;;1999.90;823.15;;;;;;;21.27;50.10;99655.81;1721100;83;21299;-79
2021/06/06 13:40:31;;;;;;;1999.90;999.90;;;;;;;21.35;49.36;99651.17;1720478;83;21320;-79
2021/06/06 13:43:36;;;;;;;1999.90;807.13;;;;;;;21.47;49.06;99649.08;1720451;83;21307;-78
2021/06/06 13:46:43;;;;;;;1999.90;978.05;;;;;;;21.63;48.72;99657.00;1720816;83;21295;-79
2021/06/06 13:49:48;;;;;;;1999.90;878.20;;;;;;;21.78;48.14;99658.52;1727380;83;21354;-79
2021/06/06 13:52:56;;;;;;;1999.90;931.67;;;;;;;21.89;47.89;99652.50;1771576;81;21714;-79
2021/06/06 13:56:01;;;;;;;1999.90;999.90;;;;;;;22.02;47.63;99646.48;1772961;81;21818;-79
2021/06/06 13:59:07;;;;;;;1999.90;999.90;;;;;;;22.12;46.84;99653.55;1773010;81;21220;-79
2021/06/06 14:02:18;;;;;;;1999.90;999.90;;;;;;;22.19;45.73;99655.52;1771645;81;21224;-79
2021/06/06 14:05:24;;;;;;;1999.90;999.90;;;;;;;22.24;46.66;99660.84;1773039;81;21739;-79
2021/06/06 14:08:29;;;;;;;1999.90;999.47;;;;;;;22.22;45.47;99662.52;1773157;81;21323;-79
2021/06/06 14:11:38;;;;;;;1999.90;999.90;;;;;;;22.19;45.99;99664.44;1772149;81;21160;-79
2021/06/06 14:14:44;;;;;;;1999.90;999.90;;;;;;;22.16;46.02;99663.56;1773114;81;21816;-78